Time;durP1;ratioP1;P1;durP2;ratioP2;P2;SDS_P1;SDS_P2;PMS_P1;PMS_P2;Temp;Humidity;BMP_temperature;BMP_pressure;BME280_temperature;BME280_humidity;BME280_pressure;Samples;Min_cycle;Max_cycle;Signal;HPM_P1;HPM_P2
2023/07/03 00:02:23;;;;;;;14.45;3.35;;;18.80;83.20;;;;;;5096131;28;20032;-82
2023/07/03 00:04:49;;;;;;;13.10;3.00;;;18.80;83.60;;;;;;5080437;28;20602;-83
2023/07/03 00:07:14;;;;;;;15.15;3.08;;;18.70;83.30;;;;;;5098462;28;20064;-83
2023/07/03 00:09:43;;;;;;;14.35;3.20;;;18.70;83.30;;;;;;5096296;28;20112;-82
2023/07/03 00:12:10;;;;;;;12.95;3.22;;;18.70;83.80;;;;;;5096598;28;20480;-83
2023/07/03 00:14:37;;;;;;;17.00;3.90;;;18.70;84.00;;;;;;5078546;28;20028;-82
2023/07/03 00:17:02;;;;;;;17.52;3.50;;;18.70;84.10;;;;;;5096046;28;20043;-81
2023/07/03 00:19:31;;;;;;;14.23;3.30;;;18.70;84.40;;;;;;5094958;28;20027;-82
2023/07/03 00:22:00;;;;;;;13.70;3.72;;;18.80;84.80;;;;;;5094983;28;20066;-81
2023/07/03 00:24:28;;;;;;;15.35;3.83;;;18.80;84.20;;;;;;5094925;28;20055;-83
2023/07/03 00:26:55;;;;;;;16.90;3.67;;;18.90;84.00;;;;;;5095467;28;20440;-82
2023/07/03 00:29:20;;;;;;;14.45;3.38;;;18.80;83.80;;;;;;5096810;28;20526;-82
2023/07/03 00:31:46;;;;;;;12.20;2.85;;;18.80;84.00;;;;;;5095792;28;20036;-82
2023/07/03 00:34:12;;;;;;;12.95;3.53;;;18.70;83.70;;;;;;5094800;28;20033;-81
2023/07/03 00:36:37;;;;;;;17.67;3.25;;;18.80;83.50;;;;;;5094643;28;20055;-82
2023/07/03 00:39:04;;;;;;;15.95;3.28;;;18.70;83.40;;;;;;5094242;28;20024;-81
2023/07/03 00:41:30;;;;;;;11.63;2.88;;;18.70;83.60;;;;;;5095427;28;20115;-81
2023/07/03 00:43:56;;;;;;;18.17;3.17;;;18.70;83.70;;;;;;5094423;28;20090;-81
2023/07/03 00:46:22;;;;;;;17.95;3.33;;;18.70;83.80;;;;;;5095381;28;20082;-82
2023/07/03 00:48:47;;;;;;;14.55;3.22;;;18.70;83.30;;;;;;5094614;28;20024;-82
2023/07/03 00:51:14;;;;;;;17.55;3.33;;;18.70;83.40;;;;;;5095963;28;20118;-82
2023/07/03 00:53:40;;;;;;;23.73;4.80;;;18.60;83.60;;;;;;5095195;28;20380;-81
2023/07/03 00:56:06;;;;;;;15.73;3.08;;;18.60;83.50;;;;;;5094176;28;20031;-81
2023/07/03 00:58:33;;;;;;;14.40;3.03;;;18.60;83.70;;;;;;5095003;28;20628;-81
2023/07/03 01:01:16;;;;;;;12.65;3.50;;;18.60;83.70;;;;;;5094135;28;20076;-82
2023/07/03 01:03:54;;;;;;;15.13;3.33;;;18.50;83.90;;;;;;5095725;28;20027;-81
2023/07/03 01:06:24;;;;;;;14.48;2.92;;;18.50;84.20;;;;;;5095247;28;20085;-81
2023/07/03 01:08:54;;;;;;;11.48;2.88;;;18.60;84.10;;;;;;5094731;28;20476;-82
2023/07/03 01:11:22;;;;;;;13.65;2.92;;;18.60;83.80;;;;;;5093871;28;20020;-82
2023/07/03 01:13:49;;;;;;;15.35;3.53;;;18.60;84.10;;;;;;5095123;28;20515;-82
2023/07/03 01:16:16;;;;;;;13.52;2.60;;;18.60;83.80;;;;;;5093404;28;20060;-82
2023/07/03 01:18:45;;;;;;;15.57;4.07;;;18.50;84.50;;;;;;5093710;28;20127;-82
2023/07/03 01:21:25;;;;;;;20.88;3.95;;;18.50;83.70;;;;;;5093885;28;20032;-82
2023/07/03 01:24:00;;;;;;;21.48;3.28;;;18.50;83.80;;;;;;5094393;28;20505;-81
2023/07/03 01:26:27;;;;;;;14.43;3.45;;;18.50;83.20;;;;;;5093589;28;20028;-82
2023/07/03 01:28:59;;;;;;;14.75;3.13;;;18.50;83.40;;;;;;5093592;28;20040;-81
2023/07/03 01:31:26;;;;;;;14.27;2.90;;;18.50;83.60;;;;;;5093411;28;20024;-82
2023/07/03 01:33:54;;;;;;;15.70;2.97;;;18.50;83.70;;;;;;5094202;28;20035;-82
2023/07/03 01:36:22;;;;;;;16.27;3.25;;;18.50;83.90;;;;;;5095078;28;20070;-83
2023/07/03 01:38:49;;;;;;;17.33;4.43;;;18.40;83.70;;;;;;5094596;28;20048;-82
2023/07/03 01:41:17;;;;;;;11.45;2.42;;;18.40;83.80;;;;;;5093751;28;20464;-82
2023/07/03 01:43:44;;;;;;;15.43;3.30;;;18.40;83.90;;;;;;5092828;28;20465;-81
2023/07/03 01:46:10;;;;;;;13.52;3.40;;;18.40;84.20;;;;;;5094348;28;20513;-82
2023/07/03 01:48:36;;;;;;;17.77;3.80;;;18.40;84.30;;;;;;5094315;28;20039;-81
2023/07/03 01:51:04;;;;;;;16.23;3.47;;;18.40;84.50;;;;;;5094411;28;20034;-82
2023/07/03 01:53:50;;;;;;;15.32;3.47;;;18.40;84.00;;;;;;5092729;28;20054;-82
2023/07/03 01:56:24;;;;;;;18.75;3.50;;;18.30;84.00;;;;;;5094527;28;20024;-82
2023/07/03 01:58:56;;;;;;;17.55;3.00;;;18.30;84.00;;;;;;5093072;28;20094;-82
2023/07/03 02:01:45;;;;;;;16.90;3.38;;;18.20;84.50;;;;;;5094251;28;20039;-82
2023/07/03 02:04:24;;;;;;;13.43;3.65;;;18.20;84.80;;;;;;5093615;28;20032;-82
2023/07/03 02:06:51;;;;;;;19.83;4.07;;;18.20;84.90;;;;;;5094083;28;20389;-82
2023/07/03 02:09:18;;;;;;;19.20;3.85;;;18.20;85.00;;;;;;5092820;28;20489;-82
2023/07/03 02:11:47;;;;;;;20.60;3.33;;;18.20;84.80;;;;;;5093674;28;20091;-82
2023/07/03 02:14:12;;;;;;;19.08;3.42;;;18.30;84.30;;;;;;5093570;28;20403;-83
2023/07/03 02:16:41;;;;;;;17.52;3.53;;;18.20;84.30;;;;;;5094184;28;20028;-82
2023/07/03 02:19:08;;;;;;;13.85;2.97;;;18.30;84.20;;;;;;5092876;28;20024;-81
2023/07/03 02:21:38;;;;;;;16.35;4.18;;;18.20;84.40;;;;;;5092178;28;20355;-82
2023/07/03 02:24:04;;;;;;;12.88;3.08;;;18.20;84.20;;;;;;5092892;28;20032;-82
2023/07/03 02:26:29;;;;;;;16.02;3.10;;;18.20;84.70;;;;;;5093250;28;20498;-82
2023/07/03 02:28:55;;;;;;;13.00;2.83;;;18.20;84.40;;;;;;5093294;28;20032;-82
2023/07/03 02:31:21;;;;;;;16.63;3.20;;;18.10;84.50;;;;;;5093585;28;20050;-82
2023/07/03 02:33:46;;;;;;;16.23;3.45;;;18.10;84.70;;;;;;5092011;28;20084;-82
2023/07/03 02:36:12;;;;;;;16.48;3.67;;;18.10;84.80;;;;;;5092216;28;20064;-82
2023/07/03 02:38:38;;;;;;;16.13;3.17;;;18.10;85.40;;;;;;5092228;28;20031;-82
2023/07/03 02:41:03;;;;;;;19.90;3.63;;;18.10;85.70;;;;;;5074803;28;20060;-82
2023/07/03 02:43:30;;;;;;;17.17;3.47;;;18.10;85.60;;;;;;5092499;28;20113;-78
2023/07/03 02:46:05;;;;;;;18.58;3.65;;;18.00;85.90;;;;;;5093770;28;20467;-78
2023/07/03 02:48:31;;;;;;;11.43;3.03;;;18.00;86.00;;;;;;5093344;28;20372;-79
2023/07/03 02:50:56;;;;;;;22.20;3.72;;;18.00;86.30;;;;;;5092808;28;20020;-79
2023/07/03 02:53:22;;;;;;;20.60;3.67;;;18.00;86.70;;;;;;5093575;28;20113;-78
2023/07/03 02:55:54;;;;;;;12.73;3.35;;;17.90;87.20;;;;;;5092672;28;20151;-78
2023/07/03 02:58:19;;;;;;;18.33;3.00;;;17.90;87.40;;;;;;5093931;28;20074;-78
2023/07/03 03:00:46;;;;;;;24.73;4.03;;;17.90;87.80;;;;;;5094066;28;20464;-78
2023/07/03 03:03:13;;;;;;;19.75;3.53;;;17.90;88.00;;;;;;5094007;28;20032;-79
2023/07/03 03:05:39;;;;;;;21.73;5.05;;;17.80;88.90;;;;;;5076281;28;20086;-79
2023/07/03 03:08:05;;;;;;;18.40;3.60;;;17.90;88.50;;;;;;5092641;28;20157;-79
2023/07/03 03:10:31;;;;;;;18.50;4.13;;;17.80;88.80;;;;;;5094040;28;20024;-79
2023/07/03 03:12:56;;;;;;;23.05;4.68;;;17.90;89.20;;;;;;5076263;28;20483;-78
2023/07/03 03:15:22;;;;;;;20.83;4.43;;;17.80;89.20;;;;;;5093990;28;20376;-78
2023/07/03 03:17:47;;;;;;;21.33;4.07;;;17.80;89.80;;;;;;5092769;28;20165;-78
2023/07/03 03:20:14;;;;;;;20.30;4.47;;;17.70;90.00;;;;;;5093635;28;20105;-79
2023/07/03 03:22:42;;;;;;;21.20;3.97;;;17.70;90.10;;;;;;5093708;28;20467;-79
2023/07/03 03:25:08;;;;;;;19.10;3.92;;;17.70;90.20;;;;;;5092166;28;20052;-78
2023/07/03 03:27:34;;;;;;;23.95;4.68;;;17.80;90.30;;;;;;5092423;28;20537;-78
2023/07/03 03:30:00;;;;;;;25.40;4.75;;;17.80;90.70;;;;;;5093893;28;20460;-78
2023/07/03 03:32:27;;;;;;;22.30;4.35;;;17.70;90.80;;;;;;5095836;28;20032;-78
2023/07/03 03:34:53;;;;;;;19.80;4.35;;;17.80;91.00;;;;;;5097849;28;20032;-79
2023/07/03 03:37:18;;;;;;;17.77;4.18;;;17.80;91.30;;;;;;5096385;28;20054;-79
2023/07/03 03:39:44;;;;;;;22.48;4.22;;;17.80;91.60;;;;;;5096409;28;20468;-79
2023/07/03 03:42:10;;;;;;;20.50;4.50;;;17.90;91.60;;;;;;5097287;28;20483;-78
2023/07/03 03:44:36;;;;;;;23.42;4.15;;;17.80;91.60;;;;;;5096145;28;20061;-79
2023/07/03 03:47:02;;;;;;;24.42;4.50;;;17.90;91.70;;;;;;5097349;28;20038;-78
2023/07/03 03:49:28;;;;;;;19.42;4.57;;;17.90;91.90;;;;;;5097613;28;20060;-79
2023/07/03 03:51:54;;;;;;;20.10;4.00;;;17.90;92.20;;;;;;5095981;28;20472;-79
2023/07/03 03:54:20;;;;;;;19.63;4.57;;;17.90;92.10;;;;;;5096397;28;20153;-78
2023/07/03 03:56:46;;;;;;;30.70;5.90;;;17.90;92.40;;;;;;5097157;28;20019;-78
2023/07/03 03:59:11;;;;;;;28.48;4.75;;;17.80;92.60;;;;;;5096540;28;20517;-78
2023/07/03 04:01:37;;;;;;;28.65;5.43;;;17.80;92.80;;;;;;5097073;28;20549;-78
2023/07/03 04:04:03;;;;;;;23.95;4.50;;;17.70;93.00;;;;;;5097499;28;20430;-78
2023/07/03 04:06:29;;;;;;;27.20;4.85;;;17.70;93.30;;;;;;5096672;28;20499;-78
2023/07/03 04:08:58;;;;;;;22.15;4.78;;;17.70;93.30;;;;;;5096958;28;20035;-78
2023/07/03 04:11:25;;;;;;;23.15;5.00;;;17.70;93.40;;;;;;5097188;28;20138;-78
2023/07/03 04:13:50;;;;;;;27.50;5.43;;;17.80;93.50;;;;;;5096816;28;20464;-78
2023/07/03 04:16:16;;;;;;;28.15;5.25;;;17.80;93.60;;;;;;5096488;28;20085;-79
2023/07/03 04:18:42;;;;;;;24.42;5.63;;;17.70;93.70;;;;;;5096792;28;20047;-78
2023/07/03 04:21:07;;;;;;;25.45;4.47;;;17.70;93.70;;;;;;5096678;28;20034;-78
2023/07/03 04:23:33;;;;;;;29.85;5.25;;;17.80;93.80;;;;;;5096773;28;20457;-78
2023/07/03 04:25:59;;;;;;;21.92;4.43;;;17.70;93.80;;;;;;5096090;28;20414;-78
2023/07/03 04:28:24;;;;;;;27.90;5.03;;;17.70;93.80;;;;;;5095700;28;20028;-78
2023/07/03 04:30:50;;;;;;;26.35;4.75;;;17.80;93.80;;;;;;5095419;28;20035;-78
2023/07/03 04:33:16;;;;;;;21.98;4.78;;;17.70;93.90;;;;;;5095510;28;20033;-78
2023/07/03 04:35:43;;;;;;;24.90;4.90;;;17.80;93.90;;;;;;5096363;28;20047;-79
2023/07/03 04:38:09;;;;;;;27.58;5.30;;;17.80;93.90;;;;;;5096449;28;20029;-78
2023/07/03 04:40:35;;;;;;;23.88;4.78;;;17.70;94.00;;;;;;5096331;28;20024;-78
2023/07/03 04:43:01;;;;;;;25.05;4.93;;;17.80;94.00;;;;;;5095309;28;20059;-79
2023/07/03 04:45:28;;;;;;;24.40;5.50;;;17.70;94.10;;;;;;5096230;28;20020;-79
2023/07/03 04:47:53;;;;;;;23.20;4.88;;;17.70;94.10;;;;;;5096190;28;20107;-77
2023/07/03 04:50:24;;;;;;;20.95;4.22;;;17.60;94.30;;;;;;5094730;28;20107;-78
2023/07/03 04:52:50;;;;;;;24.83;4.28;;;17.60;94.40;;;;;;5095988;28;20073;-78
2023/07/03 04:55:17;;;;;;;19.00;4.28;;;17.60;94.30;;;;;;5096126;28;20039;-78
2023/07/03 04:57:42;;;;;;;26.60;4.85;;;17.60;94.20;;;;;;5094841;28;20028;-78
2023/07/03 05:00:14;;;;;;;25.73;5.35;;;17.60;94.30;;;;;;5096343;28;20082;-78
2023/07/03 05:02:48;;;;;;;32.20;5.80;;;17.70;94.30;;;;;;5095190;28;20028;-78
2023/07/03 05:05:15;;;;;;;30.10;5.00;;;17.70;94.30;;;;;;5094647;28;20613;-78
2023/07/03 05:07:42;;;;;;;25.45;4.68;;;17.70;94.40;;;;;;5095833;28;20020;-78
2023/07/03 05:10:09;;;;;;;21.00;4.22;;;17.70;94.30;;;;;;5094712;28;20028;-78
2023/07/03 05:12:36;;;;;;;26.77;5.63;;;17.70;94.30;;;;;;5077741;28;20058;-79
2023/07/03 05:15:03;;;;;;;24.50;5.57;;;17.70;94.40;;;;;;5094704;28;20020;-80
2023/07/03 05:17:28;;;;;;;28.20;5.38;;;17.70;94.50;;;;;;5094709;28;20471;-78
2023/07/03 05:19:55;;;;;;;26.73;4.60;;;17.70;94.60;;;;;;5095528;28;20028;-77
2023/07/03 05:22:21;;;;;;;24.10;5.47;;;17.70;94.70;;;;;;5094166;28;20032;-77
2023/07/03 05:24:47;;;;;;;33.28;5.28;;;17.70;94.60;;;;;;5095426;28;20165;-78
2023/07/03 05:27:13;;;;;;;24.88;5.05;;;17.60;94.70;;;;;;5095411;28;20047;-78
2023/07/03 05:29:39;;;;;;;18.50;4.63;;;17.60;94.90;;;;;;5095343;28;20039;-76
2023/07/03 05:32:05;;;;;;;21.10;5.43;;;17.70;94.90;;;;;;5095259;28;20097;-77
2023/07/03 05:34:32;;;;;;;25.98;5.28;;;17.70;94.90;;;;;;5093690;28;20032;-77
2023/07/03 05:36:58;;;;;;;27.20;5.28;;;17.70;95.10;;;;;;5093885;28;20035;-77
2023/07/03 05:39:24;;;;;;;28.73;5.60;;;17.60;95.30;;;;;;5095379;28;20036;-78
2023/07/03 05:41:50;;;;;;;22.55;4.50;;;17.60;95.40;;;;;;5093935;28;20030;-89
2023/07/03 05:44:16;;;;;;;23.58;4.72;;;17.60;95.50;;;;;;5094582;28;20412;-81
2023/07/03 05:46:41;;;;;;;25.30;4.65;;;17.60;95.50;;;;;;5095398;28;20143;-86
2023/07/03 05:49:07;;;;;;;25.30;5.20;;;17.60;95.50;;;;;;5094317;28;20028;-85
2023/07/03 05:51:33;;;;;;;24.17;5.20;;;17.60;95.30;;;;;;5095885;28;20032;-87
2023/07/03 05:53:58;;;;;;;24.23;4.65;;;17.60;95.40;;;;;;5094741;28;20123;-87
2023/07/03 05:56:27;;;;;;;26.08;5.32;;;17.70;95.60;;;;;;5100528;28;20024;-86
2023/07/03 05:58:52;;;;;;;31.77;6.22;;;17.70;95.50;;;;;;5097434;28;20039;-79
2023/07/03 06:01:18;;;;;;;27.50;4.88;;;17.70;95.40;;;;;;5093465;28;20024;-81
2023/07/03 06:03:44;;;;;;;23.33;5.50;;;17.70;95.50;;;;;;5094357;28;20400;-86
2023/07/03 06:06:12;;;;;;;28.33;5.05;;;17.80;95.50;;;;;;5095310;28;20031;-85
2023/07/03 06:08:38;;;;;;;23.80;4.88;;;17.80;95.30;;;;;;5095905;28;20503;-86
2023/07/03 06:11:03;;;;;;;24.60;6.00;;;17.90;95.20;;;;;;5095315;28;20046;-86
2023/07/03 06:13:29;;;;;;;26.73;4.72;;;17.90;95.20;;;;;;5094579;28;20070;-88
2023/07/03 06:15:56;;;;;;;21.30;4.70;;;17.80;95.20;;;;;;5095522;28;20118;-87
2023/07/03 06:18:22;;;;;;;22.52;5.28;;;17.80;95.20;;;;;;5096388;28;20032;-84
2023/07/03 06:20:48;;;;;;;29.38;5.45;;;17.90;95.30;;;;;;5095433;28;20054;-82
2023/07/03 06:23:15;;;;;;;26.17;4.90;;;17.90;95.00;;;;;;5095215;28;20043;-88
2023/07/03 06:25:40;;;;;;;23.98;4.78;;;17.90;95.20;;;;;;5078532;28;20028;-86
2023/07/03 06:28:08;;;;;;;26.27;4.75;;;18.00;95.20;;;;;;5095619;28;20036;-88
2023/07/03 06:30:34;;;;;;;20.70;4.88;;;18.00;95.20;;;;;;5078489;28;20100;-89
2023/07/03 06:33:00;;;;;;;20.17;5.00;;;18.10;95.20;;;;;;5094284;28;20116;-84
2023/07/03 06:35:25;;;;;;;24.45;5.15;;;18.10;95.20;;;;;;5095582;28;20387;-86
2023/07/03 06:37:58;;;;;;;31.15;5.43;;;18.10;95.20;;;;;;5100103;28;20036;-86
2023/07/03 06:40:24;;;;;;;23.98;5.05;;;18.00;95.10;;;;;;5095012;28;20028;-86
2023/07/03 06:42:52;;;;;;;21.73;5.25;;;18.00;95.10;;;;;;5094617;28;20052;-84
2023/07/03 06:45:17;;;;;;;19.95;4.47;;;18.00;94.90;;;;;;5096319;28;20032;-84
2023/07/03 06:47:43;;;;;;;22.63;5.68;;;18.00;94.90;;;;;;5099613;28;20365;-83
2023/07/03 06:50:09;;;;;;;23.45;5.78;;;18.00;95.00;;;;;;5096702;28;20048;-84
2023/07/03 06:52:36;;;;;;;20.85;4.22;;;18.00;95.00;;;;;;5096045;28;20028;-81
2023/07/03 06:55:05;;;;;;;21.88;4.93;;;18.00;95.00;;;;;;5094483;28;20024;-81
2023/07/03 06:57:33;;;;;;;22.02;4.60;;;18.00;94.90;;;;;;5077793;28;20028;-82
2023/07/03 06:59:59;;;;;;;21.40;4.43;;;18.10;94.90;;;;;;5095099;28;20421;-82
2023/07/03 07:02:25;;;;;;;23.40;4.97;;;18.10;94.90;;;;;;5095701;28;20118;-83
2023/07/03 07:04:54;;;;;;;23.63;4.70;;;18.10;94.90;;;;;;5076859;28;20032;-85
2023/07/03 07:07:20;;;;;;;22.50;4.90;;;18.10;94.90;;;;;;5094673;28;20030;-85
2023/07/03 07:09:46;;;;;;;24.50;5.50;;;18.20;95.00;;;;;;5095831;28;20096;-83
2023/07/03 07:12:11;;;;;;;18.67;4.10;;;18.20;94.80;;;;;;5094198;28;20103;-82
2023/07/03 07:14:37;;;;;;;27.67;5.57;;;18.30;94.90;;;;;;5082133;28;20032;-85
2023/07/03 07:17:03;;;;;;;18.33;4.68;;;18.30;94.50;;;;;;5080096;28;20028;-86
2023/07/03 07:19:29;;;;;;;18.33;4.20;;;18.20;94.40;;;;;;5099706;28;20028;-85
2023/07/03 07:21:55;;;;;;;21.52;4.50;;;18.20;94.40;;;;;;5082208;28;20078;-85
2023/07/03 07:24:23;;;;;;;20.60;4.03;;;18.20;94.30;;;;;;5100903;28;20040;-84
2023/07/03 07:26:54;;;;;;;20.90;3.90;;;18.10;94.10;;;;;;5086117;28;20028;-84
2023/07/03 07:29:25;;;;;;;17.77;3.80;;;18.10;94.40;;;;;;5096884;28;20492;-85
2023/07/03 07:31:53;;;;;;;17.70;4.38;;;18.10;94.40;;;;;;5093815;28;20035;-85
2023/07/03 07:34:18;;;;;;;19.02;4.78;;;18.10;94.80;;;;;;5092815;28;20024;-84
2023/07/03 07:36:44;;;;;;;18.73;4.18;;;18.20;94.60;;;;;;5093875;28;20107;-86
2023/07/03 07:39:10;;;;;;;20.73;4.50;;;18.20;94.30;;;;;;5093499;28;20194;-85
2023/07/03 07:41:36;;;;;;;17.00;4.07;;;18.30;94.10;;;;;;5094942;28;20085;-85
2023/07/03 07:44:04;;;;;;;19.50;5.30;;;18.30;94.20;;;;;;5094987;28;20528;-85
2023/07/03 07:46:31;;;;;;;20.98;4.15;;;18.30;94.10;;;;;;5095029;28;20032;-81
2023/07/03 07:48:58;;;;;;;25.63;5.43;;;18.30;94.00;;;;;;5095685;28;20024;-84
2023/07/03 07:51:24;;;;;;;19.63;5.15;;;18.40;94.10;;;;;;5095735;28;20120;-82
2023/07/03 07:53:51;;;;;;;27.05;5.03;;;18.40;94.20;;;;;;5093718;28;20353;-84
2023/07/03 07:56:17;;;;;;;19.85;4.07;;;18.50;94.30;;;;;;5093877;28;20031;-84
2023/07/03 07:58:43;;;;;;;19.50;4.32;;;18.50;94.20;;;;;;5092963;28;20028;-84
2023/07/03 08:01:11;;;;;;;16.92;4.03;;;18.50;93.70;;;;;;5094793;28;20032;-76
2023/07/03 08:03:39;;;;;;;21.20;5.07;;;18.60;94.00;;;;;;5095081;28;20116;-76
2023/07/03 08:06:05;;;;;;;18.75;4.20;;;18.70;93.90;;;;;;5095075;28;20032;-79
2023/07/03 08:08:32;;;;;;;22.75;5.13;;;18.70;93.70;;;;;;5094151;28;20028;-78
2023/07/03 08:11:00;;;;;;;18.00;3.97;;;18.80;93.70;;;;;;5092916;28;20020;-80
2023/07/03 08:13:27;;;;;;;17.38;3.97;;;18.80;93.70;;;;;;5093255;28;20448;-81
2023/07/03 08:15:54;;;;;;;20.00;4.10;;;18.80;93.40;;;;;;5092356;28;20475;-79
2023/07/03 08:18:20;;;;;;;25.23;4.00;;;18.80;93.30;;;;;;5093308;28;20024;-80
2023/07/03 08:20:47;;;;;;;19.40;3.70;;;19.00;93.30;;;;;;5096619;28;20024;-84
2023/07/03 08:23:13;;;;;;;20.63;4.32;;;19.20;93.20;;;;;;5098321;28;20147;-80
2023/07/03 08:25:40;;;;;;;18.17;3.53;;;19.30;92.80;;;;;;5100943;28;20384;-81
2023/07/03 08:28:05;;;;;;;16.83;3.42;;;19.40;92.50;;;;;;5100997;28;20024;-83
2023/07/03 08:30:31;;;;;;;20.60;3.63;;;19.40;92.20;;;;;;5100038;28;20038;-83
2023/07/03 08:32:57;;;;;;;17.40;3.55;;;19.40;92.50;;;;;;5096261;28;20464;-81
2023/07/03 08:35:23;;;;;;;15.90;3.40;;;19.40;92.20;;;;;;5096463;28;20058;-84
2023/07/03 08:37:49;;;;;;;14.25;3.13;;;19.50;92.00;;;;;;5098018;28;20020;-82
2023/07/03 08:40:20;;;;;;;14.77;3.22;;;19.60;91.60;;;;;;5080004;28;20024;-86
2023/07/03 08:42:53;;;;;;;13.98;2.67;;;19.70;91.10;;;;;;5097022;28;20475;-82
2023/07/03 08:45:20;;;;;;;;;;;19.80;91.40;;;;;;5097504;28;20028;-83
2023/07/03 08:47:47;;;;;;;9.32;2.72;;;19.90;91.00;;;;;;5096318;28;19912;-86
2023/07/03 08:50:17;;;;;;;12.45;2.95;;;20.10;91.20;;;;;;5095331;28;20035;-84
2023/07/03 08:52:50;;;;;;;16.77;2.95;;;20.30;90.70;;;;;;5096310;28;20133;-84
2023/07/03 08:55:21;;;;;;;16.55;3.45;;;20.30;90.40;;;;;;5096637;28;20054;-85
2023/07/03 08:57:47;;;;;;;12.10;2.70;;;20.20;90.10;;;;;;5097732;28;20024;-84
2023/07/03 09:00:13;;;;;;;10.68;1.90;;;20.10;89.20;;;;;;5096912;28;20032;-85
2023/07/03 09:02:38;;;;;;;10.48;1.95;;;19.90;85.30;;;;;;5095773;28;20032;-83
2023/07/03 09:05:10;;;;;;;13.63;2.15;;;19.70;84.20;;;;;;5096488;28;20374;-82
2023/07/03 09:07:56;;;;;;;10.07;2.03;;;19.50;85.00;;;;;;5097439;28;20023;-85
2023/07/03 09:10:34;;;;;;;10.98;1.80;;;19.50;86.80;;;;;;5095601;28;20028;-82
2023/07/03 09:13:08;;;;;;;14.23;2.53;;;19.50;87.00;;;;;;5096532;28;20456;-83
2023/07/03 09:15:41;;;;;;;11.52;2.30;;;19.60;88.00;;;;;;5095511;28;20039;-85
2023/07/03 09:18:17;;;;;;;14.70;2.72;;;19.60;89.00;;;;;;5096570;28;20059;-82
2023/07/03 09:20:43;;;;;;;13.48;2.88;;;19.70;88.00;;;;;;5097116;28;20028;-79
2023/07/03 09:23:36;;;;;;;10.85;2.20;;;19.80;86.70;;;;;;5098451;28;20028;-82
2023/07/03 09:26:12;;;;;;;12.02;2.63;;;19.90;86.50;;;;;;5099742;28;20527;-85
2023/07/03 09:28:40;;;;;;;14.20;2.45;;;19.90;86.60;;;;;;5096620;28;20047;-84
2023/07/03 09:31:05;;;;;;;12.32;2.30;;;19.80;86.30;;;;;;5095246;28;20119;-83
2023/07/03 09:33:31;;;;;;;11.43;2.05;;;19.70;86.70;;;;;;5096313;28;20063;-80
2023/07/03 09:36:19;;;;;;;15.98;2.55;;;19.60;86.00;;;;;;5096775;28;20040;-84
2023/07/03 09:38:44;;;;;;;16.80;2.65;;;19.40;87.00;;;;;;5098455;28;20034;-81
2023/07/03 09:41:10;;;;;;;8.98;1.98;;;19.30;87.10;;;;;;5095634;28;20032;-84
2023/07/03 09:43:43;;;;;;;12.40;2.15;;;19.10;86.50;;;;;;5093681;28;20067;-83
2023/07/03 09:46:15;;;;;;;16.40;3.58;;;19.00;87.50;;;;;;5095877;28;20034;-86
2023/07/03 09:48:40;;;;;;;16.30;2.47;;;18.90;88.90;;;;;;5095504;28;20020;-85
2023/07/03 09:51:25;;;;;;;13.23;2.78;;;18.90;89.50;;;;;;5095632;28;20115;-83
2023/07/03 09:53:52;;;;;;;14.75;2.78;;;18.90;90.20;;;;;;5093574;28;20075;-84
2023/07/03 09:56:22;;;;;;;11.40;2.38;;;18.90;90.00;;;;;;5096192;28;20097;-84
2023/07/03 09:58:50;;;;;;;12.60;2.20;;;19.00;89.00;;;;;;5095191;28;20169;-82
2023/07/03 10:01:20;;;;;;;15.55;3.75;;;19.20;89.80;;;;;;5096902;28;20028;-84
2023/07/03 10:03:46;;;;;;;13.45;2.78;;;19.40;88.10;;;;;;5095601;28;20024;-84
2023/07/03 10:06:15;;;;;;;13.35;2.33;;;19.40;87.80;;;;;;5094848;28;20341;-82
2023/07/03 10:08:45;;;;;;;13.48;2.20;;;19.40;87.80;;;;;;5094273;28;20024;-86
2023/07/03 10:11:12;;;;;;;11.85;2.20;;;19.30;88.10;;;;;;5077638;28;20028;-83
2023/07/03 10:13:48;;;;;;;12.88;2.50;;;19.20;86.60;;;;;;5094793;28;20038;-84
2023/07/03 10:16:15;;;;;;;14.18;2.30;;;19.20;87.00;;;;;;5094927;28;20471;-83
2023/07/03 10:18:48;;;;;;;11.13;2.53;;;19.20;88.40;;;;;;5093633;28;20024;-83
2023/07/03 10:21:17;;;;;;;9.65;2.25;;;19.10;89.80;;;;;;5093520;28;20035;-84
2023/07/03 10:23:44;;;;;;;10.23;2.60;;;19.00;89.60;;;;;;5093622;28;20032;-84
2023/07/03 10:26:21;;;;;;;11.70;1.80;;;18.90;89.10;;;;;;5095180;28;20063;-85
2023/07/03 10:28:52;;;;;;;11.43;2.00;;;18.80;88.00;;;;;;5095032;28;20024;-84
2023/07/03 10:31:24;;;;;;;9.98;1.52;;;18.80;88.40;;;;;;5095286;28;20409;-83
2023/07/03 10:33:58;;;;;;;6.95;1.38;;;18.80;88.10;;;;;;5093267;28;20031;-84
2023/07/03 10:36:27;;;;;;;7.53;1.63;;;18.80;86.40;;;;;;5093426;28;20050;-81
2023/07/03 10:39:19;;;;;;;9.60;1.70;;;19.00;85.90;;;;;;5094784;28;20149;-84
2023/07/03 10:41:49;;;;;;;5.50;1.23;;;19.20;85.00;;;;;;5093893;28;20020;-83
2023/07/03 10:44:26;;;;;;;10.13;1.55;;;19.20;83.10;;;;;;5095621;28;20487;-84
2023/07/03 10:46:57;;;;;;;7.80;1.60;;;19.10;83.60;;;;;;5094965;28;20080;-80
2023/07/03 10:49:30;;;;;;;10.27;1.75;;;19.20;84.10;;;;;;5095439;28;20052;-84
2023/07/03 10:52:40;;;;;;;10.13;1.70;;;19.10;83.30;;;;;;5094839;28;20031;-84
2023/07/03 10:55:15;;;;;;;11.40;1.73;;;19.10;83.10;;;;;;5012364;28;20144;-84
2023/07/03 10:57:59;;;;;;;8.70;1.75;;;19.10;83.20;;;;;;5013590;28;20634;-82
2023/07/03 11:00:39;;;;;;;10.55;1.90;;;19.00;83.50;;;;;;5066439;28;20059;-84
2023/07/03 11:03:24;;;;;;;11.10;1.85;;;19.10;83.50;;;;;;5095249;28;20028;-83
2023/07/03 11:06:05;;;;;;;9.75;1.77;;;19.10;83.70;;;;;;5097960;28;20028;-86
2023/07/03 11:08:33;;;;;;;9.75;2.15;;;19.10;83.30;;;;;;5095215;28;20024;-84
2023/07/03 11:11:27;;;;;;;8.27;1.63;;;19.10;83.20;;;;;;5098283;28;20028;-85
2023/07/03 11:14:26;;;;;;;10.25;2.08;;;19.20;83.20;;;;;;5098203;28;20036;-83
2023/07/03 11:17:07;;;;;;;12.95;1.75;;;19.20;82.40;;;;;;5095247;28;20020;-82
2023/07/03 11:19:47;;;;;;;9.73;1.63;;;19.10;81.80;;;;;;5094113;28;20468;-80
2023/07/03 11:22:20;;;;;;;17.88;2.20;;;19.00;81.70;;;;;;5095739;28;20472;-82
2023/07/03 11:25:32;;;;;;;13.63;1.92;;;19.00;82.50;;;;;;5096299;28;20059;-86
2023/07/03 11:28:21;;;;;;;11.48;1.90;;;19.00;82.50;;;;;;5057734;28;20093;-85
2023/07/03 11:30:49;;;;;;;12.52;1.83;;;19.00;82.00;;;;;;5095553;28;20062;-86
2023/07/03 11:33:16;;;;;;;12.35;1.52;;;19.00;81.40;;;;;;5098740;28;20040;-83
2023/07/03 11:35:56;;;;;;;11.88;1.73;;;19.00;80.50;;;;;;5098323;28;20036;-85
2023/07/03 11:38:22;;;;;;;12.07;1.45;;;19.10;79.20;;;;;;5098746;28;20054;-84
2023/07/03 11:40:54;;;;;;;6.97;1.50;;;19.10;79.80;;;;;;5097749;28;20088;-84
2023/07/03 11:43:28;;;;;;;8.63;1.30;;;19.30;78.80;;;;;;5094988;28;20075;-84
2023/07/03 11:45:57;;;;;;;5.70;0.95;;;19.50;78.00;;;;;;5093007;28;20050;-84
2023/07/03 11:48:43;;;;;;;8.50;1.60;;;19.80;78.40;;;;;;5096533;28;20117;-84
2023/07/03 11:51:14;;;;;;;10.70;1.95;;;19.90;76.20;;;;;;5095732;28;20024;-87
2023/07/03 11:53:44;;;;;;;8.38;1.55;;;19.90;75.90;;;;;;5098950;28;20448;-80
2023/07/03 11:56:32;;;;;;;9.30;1.45;;;19.80;76.70;;;;;;5099700;28;20067;-83
2023/07/03 11:59:07;;;;;;;7.60;1.55;;;19.80;77.90;;;;;;5086651;28;20055;-83
2023/07/03 12:01:32;;;;;;;8.55;1.83;;;19.90;79.00;;;;;;5097994;28;20036;-80
2023/07/03 12:04:02;;;;;;;10.55;1.60;;;20.00;77.80;;;;;;5097141;28;20032;-79
2023/07/03 12:06:42;;;;;;;9.18;1.90;;;20.00;78.20;;;;;;5096999;28;20032;-80
2023/07/03 12:09:30;;;;;;;12.25;1.83;;;20.00;79.20;;;;;;5096552;28;20035;-78
2023/07/03 12:12:26;;;;;;;12.43;1.70;;;19.90;78.50;;;;;;5096945;28;20368;-79
2023/07/03 12:14:57;;;;;;;10.20;1.92;;;19.80;78.80;;;;;;5095918;28;20028;-80
2023/07/03 12:17:27;;;;;;;12.77;2.22;;;19.60;78.50;;;;;;5095315;28;20043;-80
2023/07/03 12:20:10;;;;;;;10.98;1.85;;;19.50;79.10;;;;;;5096631;28;20154;-80
2023/07/03 12:22:56;;;;;;;10.50;1.55;;;19.50;79.90;;;;;;5095571;28;20525;-80
2023/07/03 12:25:25;;;;;;;10.60;1.83;;;19.40;80.50;;;;;;5095694;28;20372;-81
2023/07/03 12:27:52;;;;;;;12.60;1.80;;;19.50;80.80;;;;;;5096635;28;20035;-80
2023/07/03 12:30:25;;;;;;;9.90;1.63;;;19.70;81.50;;;;;;5097319;28;20028;-80
2023/07/03 12:32:52;;;;;;;12.05;2.60;;;20.00;79.70;;;;;;5096941;28;20024;-79
2023/07/03 12:35:42;;;;;;;14.00;2.13;;;20.10;79.30;;;;;;5095154;28;20429;-80
2023/07/03 12:38:10;;;;;;;12.88;1.73;;;20.10;79.00;;;;;;5096664;28;20028;-79
2023/07/03 12:40:43;;;;;;;5.63;1.45;;;20.10;78.90;;;;;;5096020;28;20048;-80
2023/07/03 12:43:10;;;;;;;10.32;1.30;;;20.10;77.30;;;;;;5096095;28;20052;-79
2023/07/03 12:45:37;;;;;;;8.98;0.80;;;20.10;75.20;;;;;;5095575;28;20056;-80
2023/07/03 12:48:16;;;;;;;5.78;0.98;;;20.10;73.10;;;;;;5095883;28;20071;-80
2023/07/03 12:50:46;;;;;;;6.93;1.52;;;20.10;72.50;;;;;;5096412;28;20028;-79